sensor_id;sensor_type;location;lat;lon;timestamp;pressure;altitude;pressure_sealevel;temperature;humidity
43824;BME280;29470;53.550;9.926;2023-03-22T00:02:24;100518.03;;;14.36;71.40
43824;BME280;29470;53.550;9.926;2023-03-22T00:07:27;100516.06;;;15.21;67.02
43824;BME280;29470;53.550;9.926;2023-03-22T00:12:31;100512.09;;;15.29;67.58
43824;BME280;29470;53.550;9.926;2023-03-22T00:17:34;100497.97;;;14.51;69.54
43824;BME280;29470;53.550;9.926;2023-03-22T00:22:37;100488.28;;;15.21;66.46
43824;BME280;29470;53.550;9.926;2023-03-22T00:27:42;100479.56;;;14.47;69.12
43824;BME280;29470;53.550;9.926;2023-03-22T00:32:45;100477.97;;;15.23;67.03
43824;BME280;29470;53.550;9.926;2023-03-22T00:37:47;100475.94;;;14.26;70.46
43824;BME280;29470;53.550;9.926;2023-03-22T00:42:53;100471.84;;;14.13;71.41
43824;BME280;29470;53.550;9.926;2023-03-22T00:47:56;100468.41;;;14.67;70.04
43824;BME280;29470;53.550;9.926;2023-03-22T00:52:59;100467.44;;;13.94;71.83
43824;BME280;29470;53.550;9.926;2023-03-22T00:58:03;100453.97;;;14.56;70.74
43824;BME280;29470;53.550;9.926;2023-03-22T01:03:07;100459.09;;;13.67;74.08
43824;BME280;29470;53.550;9.926;2023-03-22T01:08:11;100448.16;;;14.25;71.66
43824;BME280;29470;53.550;9.926;2023-03-22T01:13:16;100450.09;;;14.66;69.99
43824;BME280;29470;53.550;9.926;2023-03-22T01:18:19;100434.88;;;14.37;70.18
43824;BME280;29470;53.550;9.926;2023-03-22T01:23:22;100436.56;;;14.19;70.77
43824;BME280;29470;53.550;9.926;2023-03-22T01:28:27;100426.81;;;14.14;72.01
43824;BME280;29470;53.550;9.926;2023-03-22T01:33:30;100421.81;;;14.01;72.18
43824;BME280;29470;53.550;9.926;2023-03-22T01:38:33;100415.38;;;14.29;71.47
43824;BME280;29470;53.550;9.926;2023-03-22T01:43:38;100408.00;;;14.20;70.32
43824;BME280;29470;53.550;9.926;2023-03-22T01:48:43;100399.69;;;14.64;70.78
43824;BME280;29470;53.550;9.926;2023-03-22T01:53:51;100393.06;;;14.88;68.79
43824;BME280;29470;53.550;9.926;2023-03-22T01:58:58;100385.41;;;14.55;70.44
43824;BME280;29470;53.550;9.926;2023-03-22T02:04:13;100381.28;;;14.05;72.22
43824;BME280;29470;53.550;9.926;2023-03-22T02:09:17;100377.38;;;14.69;70.39
43824;BME280;29470;53.550;9.926;2023-03-22T02:14:44;100377.25;;;14.11;71.86
43824;BME280;29470;53.550;9.926;2023-03-22T02:20:45;100363.78;;;15.14;68.49
43824;BME280;29470;53.550;9.926;2023-03-22T02:26:29;100359.06;;;15.25;65.57
43824;BME280;29470;53.550;9.926;2023-03-22T02:31:47;100341.47;;;14.99;67.50
43824;BME280;29470;53.550;9.926;2023-03-22T02:37:16;100338.38;;;15.08;68.52
43824;BME280;29470;53.550;9.926;2023-03-22T02:42:39;100337.22;;;14.82;68.19
43824;BME280;29470;53.550;9.926;2023-03-22T02:47:52;100335.78;;;15.08;67.30
43824;BME280;29470;53.550;9.926;2023-03-22T02:53:03;100332.06;;;15.03;66.54
43824;BME280;29470;53.550;9.926;2023-03-22T02:58:11;100331.97;;;15.21;66.93
43824;BME280;29470;53.550;9.926;2023-03-22T03:03:19;100335.34;;;15.19;66.47
43824;BME280;29470;53.550;9.926;2023-03-22T03:08:26;100322.66;;;15.07;65.61
43824;BME280;29470;53.550;9.926;2023-03-22T03:13:31;100317.00;;;14.02;71.86
43824;BME280;29470;53.550;9.926;2023-03-22T03:18:40;100318.78;;;13.85;70.95
43824;BME280;29470;53.550;9.926;2023-03-22T03:23:50;100318.03;;;14.24;69.61
43824;BME280;29470;53.550;9.926;2023-03-22T03:29:02;100305.44;;;14.89;68.38
43824;BME280;29470;53.550;9.926;2023-03-22T03:34:12;100311.34;;;14.29;69.79
43824;BME280;29470;53.550;9.926;2023-03-22T03:39:19;100301.56;;;14.43;68.70
43824;BME280;29470;53.550;9.926;2023-03-22T03:44:28;100301.69;;;15.23;66.83
43824;BME280;29470;53.550;9.926;2023-03-22T03:49:31;100305.94;;;14.06;70.48
43824;BME280;29470;53.550;9.926;2023-03-22T03:54:34;100321.09;;;13.97;71.48
43824;BME280;29470;53.550;9.926;2023-03-22T03:59:42;100299.88;;;14.25;69.57
43824;BME280;29470;53.550;9.926;2023-03-22T04:04:55;100307.25;;;14.16;70.86
43824;BME280;29470;53.550;9.926;2023-03-22T04:09:58;100299.53;;;14.55;67.99
43824;BME280;29470;53.550;9.926;2023-03-22T04:15:08;100304.63;;;13.62;73.23
43824;BME280;29470;53.550;9.926;2023-03-22T04:20:12;100308.22;;;14.00;71.04
43824;BME280;29470;53.550;9.926;2023-03-22T04:25:16;100304.16;;;14.05;70.22
43824;BME280;29470;53.550;9.926;2023-03-22T04:30:35;100293.03;;;14.27;69.93
43824;BME280;29470;53.550;9.926;2023-03-22T04:35:57;100299.91;;;14.07;71.05
43824;BME280;29470;53.550;9.926;2023-03-22T04:41:08;100288.69;;;14.46;68.78
43824;BME280;29470;53.550;9.926;2023-03-22T04:46:17;100284.09;;;14.03;70.01
43824;BME280;29470;53.550;9.926;2023-03-22T04:51:28;100283.75;;;13.42;72.19
43824;BME280;29470;53.550;9.926;2023-03-22T04:56:55;100292.63;;;14.00;69.80
43824;BME280;29470;53.550;9.926;2023-03-22T05:02:02;100286.75;;;13.68;71.30
43824;BME280;29470;53.550;9.926;2023-03-22T05:07:12;100276.94;;;14.72;66.42
43824;BME280;29470;53.550;9.926;2023-03-22T05:12:25;100276.66;;;13.74;70.98
43824;BME280;29470;53.550;9.926;2023-03-22T05:17:34;100271.94;;;14.39;68.67
43824;BME280;29470;53.550;9.926;2023-03-22T05:22:38;100275.97;;;14.14;68.96
43824;BME280;29470;53.550;9.926;2023-03-22T05:27:43;100282.31;;;14.02;68.89
43824;BME280;29470;53.550;9.926;2023-03-22T05:33:04;100285.66;;;14.37;68.88
43824;BME280;29470;53.550;9.926;2023-03-22T05:38:12;100284.38;;;13.91;70.16
43824;BME280;29470;53.550;9.926;2023-03-22T05:43:20;100290.81;;;14.17;69.85
43824;BME280;29470;53.550;9.926;2023-03-22T05:48:26;100290.41;;;13.90;69.15
43824;BME280;29470;53.550;9.926;2023-03-22T05:53:29;100283.75;;;14.33;68.03
43824;BME280;29470;53.550;9.926;2023-03-22T05:58:41;100282.25;;;14.38;66.80
43824;BME280;29470;53.550;9.926;2023-03-22T06:03:48;100276.94;;;14.72;66.96
43824;BME280;29470;53.550;9.926;2023-03-22T06:09:03;100268.88;;;14.68;66.85
43824;BME280;29470;53.550;9.926;2023-03-22T06:14:19;100271.44;;;14.86;65.64
43824;BME280;29470;53.550;9.926;2023-03-22T06:19:36;100263.22;;;14.77;65.34
43824;BME280;29470;53.550;9.926;2023-03-22T06:24:42;100264.06;;;15.16;63.97
43824;BME280;29470;53.550;9.926;2023-03-22T06:29:51;100250.63;;;15.69;61.55
43824;BME280;29470;53.550;9.926;2023-03-22T06:34:59;100249.00;;;15.09;63.48
43824;BME280;29470;53.550;9.926;2023-03-22T06:40:03;100248.59;;;16.06;59.05
43824;BME280;29470;53.550;9.926;2023-03-22T06:45:08;100265.75;;;15.57;60.33
43824;BME280;29470;53.550;9.926;2023-03-22T06:50:14;100259.19;;;16.56;57.94
43824;BME280;29470;53.550;9.926;2023-03-22T06:55:33;100255.91;;;16.86;56.63
43824;BME280;29470;53.550;9.926;2023-03-22T07:00:45;100253.47;;;16.67;56.72
43824;BME280;29470;53.550;9.926;2023-03-22T07:05:50;100252.84;;;16.97;55.74
43824;BME280;29470;53.550;9.926;2023-03-22T07:10:54;100243.19;;;17.20;54.19
43824;BME280;29470;53.550;9.926;2023-03-22T07:15:58;100250.69;;;17.11;54.79
43824;BME280;29470;53.550;9.926;2023-03-22T07:21:13;100242.69;;;16.82;56.22
43824;BME280;29470;53.550;9.926;2023-03-22T07:26:21;100240.31;;;16.39;57.76
43824;BME280;29470;53.550;9.926;2023-03-22T07:31:26;100230.47;;;16.56;57.46
43824;BME280;29470;53.550;9.926;2023-03-22T07:36:35;100220.88;;;16.08;58.61
43824;BME280;29470;53.550;9.926;2023-03-22T07:41:41;100224.91;;;16.96;56.85
43824;BME280;29470;53.550;9.926;2023-03-22T07:47:04;100215.72;;;16.83;57.41
43824;BME280;29470;53.550;9.926;2023-03-22T07:52:16;100202.91;;;16.64;57.51
43824;BME280;29470;53.550;9.926;2023-03-22T07:57:19;100193.78;;;17.28;55.91
43824;BME280;29470;53.550;9.926;2023-03-22T08:02:28;100179.63;;;17.21;56.47
43824;BME280;29470;53.550;9.926;2023-03-22T08:07:34;100165.44;;;16.88;58.05
43824;BME280;29470;53.550;9.926;2023-03-22T08:12:38;100156.25;;;17.53;56.04
43824;BME280;29470;53.550;9.926;2023-03-22T08:17:54;100145.19;;;17.91;54.72
43824;BME280;29470;53.550;9.926;2023-03-22T08:23:07;100131.00;;;17.82;54.66
43824;BME280;29470;53.550;9.926;2023-03-22T08:28:49;100129.19;;;17.80;55.79
43824;BME280;29470;53.550;9.926;2023-03-22T08:33:52;100122.38;;;17.56;55.55
43824;BME280;29470;53.550;9.926;2023-03-22T08:38:57;100129.91;;;17.47;57.83
43824;BME280;29470;53.550;9.926;2023-03-22T08:44:11;100118.41;;;18.29;53.42
43824;BME280;29470;53.550;9.926;2023-03-22T08:49:14;100110.78;;;19.82;49.11
43824;BME280;29470;53.550;9.926;2023-03-22T08:54:27;100109.72;;;18.97;50.98
43824;BME280;29470;53.550;9.926;2023-03-22T08:59:37;100108.69;;;19.27;50.09
43824;BME280;29470;53.550;9.926;2023-03-22T09:05:07;100103.69;;;18.99;51.77
43824;BME280;29470;53.550;9.926;2023-03-22T09:10:12;100101.59;;;20.01;48.54
43824;BME280;29470;53.550;9.926;2023-03-22T09:15:20;100101.88;;;19.75;49.18
43824;BME280;29470;53.550;9.926;2023-03-22T09:20:38;100095.53;;;20.04;48.72
43824;BME280;29470;53.550;9.926;2023-03-22T09:25:44;100109.63;;;20.55;46.47
43824;BME280;29470;53.550;9.926;2023-03-22T09:30:49;100091.97;;;20.01;47.08
43824;BME280;29470;53.550;9.926;2023-03-22T09:35:53;100081.94;;;19.82;48.34
43824;BME280;29470;53.550;9.926;2023-03-22T09:41:02;100079.00;;;19.68;48.05
43824;BME280;29470;53.550;9.926;2023-03-22T09:46:12;100076.00;;;18.42;51.26
43824;BME280;29470;53.550;9.926;2023-03-22T09:51:36;100069.63;;;18.99;49.84
43824;BME280;29470;53.550;9.926;2023-03-22T09:56:42;100074.66;;;18.24;51.30
43824;BME280;29470;53.550;9.926;2023-03-22T10:01:50;100065.53;;;18.77;49.18
43824;BME280;29470;53.550;9.926;2023-03-22T10:07:01;100052.88;;;18.59;50.54
43824;BME280;29470;53.550;9.926;2023-03-22T10:12:14;100061.81;;;18.67;49.90
43824;BME280;29470;53.550;9.926;2023-03-22T10:17:24;100049.88;;;18.80;49.14
43824;BME280;29470;53.550;9.926;2023-03-22T10:22:31;100061.13;;;19.10;48.20
43824;BME280;29470;53.550;9.926;2023-03-22T10:27:36;100069.44;;;18.60;49.30
43824;BME280;29470;53.550;9.926;2023-03-22T10:32:42;100067.38;;;18.46;49.21
43824;BME280;29470;53.550;9.926;2023-03-22T10:38:00;100056.75;;;18.40;49.06
43824;BME280;29470;53.550;9.926;2023-03-22T10:43:11;100071.31;;;18.30;49.09
43824;BME280;29470;53.550;9.926;2023-03-22T10:48:25;100069.84;;;18.75;48.56
43824;BME280;29470;53.550;9.926;2023-03-22T10:53:35;100064.97;;;18.55;47.85
43824;BME280;29470;53.550;9.926;2023-03-22T10:58:40;100063.47;;;18.30;48.16
43824;BME280;29470;53.550;9.926;2023-03-22T11:03:48;100064.19;;;19.30;47.31
43824;BME280;29470;53.550;9.926;2023-03-22T11:08:52;100062.53;;;18.97;47.01
43824;BME280;29470;53.550;9.926;2023-03-22T11:14:03;100056.59;;;19.03;46.91
43824;BME280;29470;53.550;9.926;2023-03-22T11:19:13;100073.25;;;19.45;46.88
43824;BME280;29470;53.550;9.926;2023-03-22T11:24:17;100076.13;;;18.82;46.91
43824;BME280;29470;53.550;9.926;2023-03-22T11:29:23;100071.63;;;19.51;46.60
43824;BME280;29470;53.550;9.926;2023-03-22T11:34:28;100080.50;;;19.56;46.27
43824;BME280;29470;53.550;9.926;2023-03-22T11:39:32;100079.63;;;18.47;47.85
43824;BME280;29470;53.550;9.926;2023-03-22T11:44:36;100085.09;;;18.92;47.21
43824;BME280;29470;53.550;9.926;2023-03-22T11:49:44;100076.44;;;19.31;45.66
43824;BME280;29470;53.550;9.926;2023-03-22T11:54:47;100068.91;;;18.73;47.05
43824;BME280;29470;53.550;9.926;2023-03-22T12:00:00;100067.09;;;19.04;46.49
43824;BME280;29470;53.550;9.926;2023-03-22T12:05:13;100062.91;;;19.52;45.57
43824;BME280;29470;53.550;9.926;2023-03-22T12:10:21;100052.41;;;19.51;45.85
43824;BME280;29470;53.550;9.926;2023-03-22T12:15:30;100057.53;;;20.30;44.64
43824;BME280;29470;53.550;9.926;2023-03-22T12:20:40;100047.63;;;19.72;45.13
43824;BME280;29470;53.550;9.926;2023-03-22T12:25:45;100047.31;;;19.58;45.54
43824;BME280;29470;53.550;9.926;2023-03-22T12:30:53;100043.41;;;19.81;44.68
43824;BME280;29470;53.550;9.926;2023-03-22T12:36:02;100053.97;;;19.42;44.47
43824;BME280;29470;53.550;9.926;2023-03-22T12:41:08;100036.84;;;19.19;44.69
43824;BME280;29470;53.550;9.926;2023-03-22T12:46:17;100049.66;;;19.05;44.57
43824;BME280;29470;53.550;9.926;2023-03-22T12:51:22;100049.03;;;19.56;44.46
43824;BME280;29470;53.550;9.926;2023-03-22T12:56:27;100042.78;;;19.11;46.51
43824;BME280;29470;53.550;9.926;2023-03-22T13:01:36;100060.06;;;18.34;49.25
43824;BME280;29470;53.550;9.926;2023-03-22T13:06:55;100059.28;;;18.72;49.08
43824;BME280;29470;53.550;9.926;2023-03-22T13:12:26;100075.75;;;17.72;51.00
43824;BME280;29470;53.550;9.926;2023-03-22T13:17:39;100074.06;;;17.74;52.49
43824;BME280;29470;53.550;9.926;2023-03-22T13:23:02;100072.25;;;17.13;53.46
43824;BME280;29470;53.550;9.926;2023-03-22T13:28:21;100076.88;;;17.80;53.14
43824;BME280;29470;53.550;9.926;2023-03-22T13:33:30;100074.56;;;17.91;53.95
43824;BME280;29470;53.550;9.926;2023-03-22T13:38:34;100067.63;;;17.62;52.71
43824;BME280;29470;53.550;9.926;2023-03-22T13:43:45;100068.75;;;17.13;55.04
43824;BME280;29470;53.550;9.926;2023-03-22T13:48:53;100066.94;;;17.99;54.55
43824;BME280;29470;53.550;9.926;2023-03-22T13:54:01;100072.53;;;17.22;54.67
43824;BME280;29470;53.550;9.926;2023-03-22T13:59:09;100058.56;;;17.49;53.81
43824;BME280;29470;53.550;9.926;2023-03-22T14:04:16;100066.88;;;17.65;53.63
43824;BME280;29470;53.550;9.926;2023-03-22T14:09:26;100070.53;;;17.43;53.86
43824;BME280;29470;53.550;9.926;2023-03-22T14:14:34;100082.41;;;16.78;55.20
43824;BME280;29470;53.550;9.926;2023-03-22T14:19:40;100079.91;;;16.81;55.48
43824;BME280;29470;53.550;9.926;2023-03-22T14:24:45;100083.78;;;17.20;55.12
43824;BME280;29470;53.550;9.926;2023-03-22T14:29:48;100073.69;;;17.60;52.98
43824;BME280;29470;53.550;9.926;2023-03-22T14:34:55;100061.13;;;17.78;52.62
43824;BME280;29470;53.550;9.926;2023-03-22T14:39:59;100048.09;;;17.20;53.49
43824;BME280;29470;53.550;9.926;2023-03-22T14:45:05;100046.69;;;17.61;52.59
43824;BME280;29470;53.550;9.926;2023-03-22T14:50:13;100071.91;;;16.51;56.04
43824;BME280;29470;53.550;9.926;2023-03-22T14:55:17;100076.00;;;16.96;55.75
43824;BME280;29470;53.550;9.926;2023-03-22T15:00:21;100076.84;;;16.67;55.42
43824;BME280;29470;53.550;9.926;2023-03-22T15:05:30;100075.72;;;16.86;55.17
43824;BME280;29470;53.550;9.926;2023-03-22T15:10:35;100077.44;;;16.34;56.65
43824;BME280;29470;53.550;9.926;2023-03-22T15:15:39;100079.47;;;16.43;55.94
43824;BME280;29470;53.550;9.926;2023-03-22T15:20:45;100080.81;;;16.56;56.16
43824;BME280;29470;53.550;9.926;2023-03-22T15:25:48;100070.28;;;16.54;55.08
43824;BME280;29470;53.550;9.926;2023-03-22T15:30:52;100074.03;;;16.88;54.40
43824;BME280;29470;53.550;9.926;2023-03-22T15:35:56;100072.06;;;16.81;54.71
43824;BME280;29470;53.550;9.926;2023-03-22T15:41:00;100078.00;;;16.51;55.82
43824;BME280;29470;53.550;9.926;2023-03-22T15:46:20;100074.72;;;16.31;56.07
43824;BME280;29470;53.550;9.926;2023-03-22T15:51:27;100081.56;;;16.53;55.81
43824;BME280;29470;53.550;9.926;2023-03-22T15:56:31;100086.81;;;16.81;55.98
43824;BME280;29470;53.550;9.926;2023-03-22T16:01:41;100078.63;;;17.21;53.47
43824;BME280;29470;53.550;9.926;2023-03-22T16:06:45;100082.97;;;16.19;57.18
43824;BME280;29470;53.550;9.926;2023-03-22T16:11:47;100095.44;;;16.52;56.52
43824;BME280;29470;53.550;9.926;2023-03-22T16:16:48;100099.91;;;16.30;57.15
43824;BME280;29470;53.550;9.926;2023-03-22T16:21:52;100095.31;;;16.47;57.68
43824;BME280;29470;53.550;9.926;2023-03-22T16:26:53;100101.44;;;16.24;58.20
43824;BME280;29470;53.550;9.926;2023-03-22T16:31:55;100090.66;;;16.64;58.27
43824;BME280;29470;53.550;9.926;2023-03-22T16:36:58;100099.94;;;15.83;59.96
43824;BME280;29470;53.550;9.926;2023-03-22T16:42:00;100101.84;;;16.12;59.77
43824;BME280;29470;53.550;9.926;2023-03-22T16:47:01;100085.31;;;17.13;56.78
43824;BME280;29470;53.550;9.926;2023-03-22T16:52:05;100093.38;;;16.68;57.92
43824;BME280;29470;53.550;9.926;2023-03-22T16:57:11;100093.63;;;16.49;58.70
43824;BME280;29470;53.550;9.926;2023-03-22T17:02:15;100108.84;;;17.13;57.33
43824;BME280;29470;53.550;9.926;2023-03-22T17:07:22;100104.72;;;16.44;58.76
43824;BME280;29470;53.550;9.926;2023-03-22T17:12:27;100104.19;;;16.28;60.12
43824;BME280;29470;53.550;9.926;2023-03-22T17:17:29;100109.59;;;16.33;60.67
43824;BME280;29470;53.550;9.926;2023-03-22T17:22:32;100110.84;;;16.20;61.21
43824;BME280;29470;53.550;9.926;2023-03-22T17:27:34;100099.31;;;15.89;62.73
43824;BME280;29470;53.550;9.926;2023-03-22T17:32:36;100115.13;;;16.42;61.14
43824;BME280;29470;53.550;9.926;2023-03-22T17:37:39;100112.59;;;16.19;62.24
43824;BME280;29470;53.550;9.926;2023-03-22T17:42:41;100109.00;;;16.66;59.94
43824;BME280;29470;53.550;9.926;2023-03-22T17:47:43;100105.34;;;16.37;60.55
43824;BME280;29470;53.550;9.926;2023-03-22T17:52:47;100107.88;;;16.09;61.51
43824;BME280;29470;53.550;9.926;2023-03-22T17:57:49;100100.19;;;16.14;61.27
43824;BME280;29470;53.550;9.926;2023-03-22T18:02:51;100082.44;;;16.03;60.92
43824;BME280;29470;53.550;9.926;2023-03-22T18:07:55;100078.78;;;15.75;61.74
43824;BME280;29470;53.550;9.926;2023-03-22T18:12:57;100076.25;;;16.50;58.46
43824;BME280;29470;53.550;9.926;2023-03-22T18:17:59;100083.03;;;16.45;58.27
43824;BME280;29470;53.550;9.926;2023-03-22T18:23:02;100071.09;;;15.79;59.57
43824;BME280;29470;53.550;9.926;2023-03-22T18:28:04;100073.66;;;16.01;58.24
43824;BME280;29470;53.550;9.926;2023-03-22T18:33:06;100087.72;;;16.05;58.96
43824;BME280;29470;53.550;9.926;2023-03-22T18:38:09;100076.81;;;16.17;57.74
43824;BME280;29470;53.550;9.926;2023-03-22T18:43:12;100068.16;;;16.42;56.83
43824;BME280;29470;53.550;9.926;2023-03-22T18:48:14;100059.91;;;16.05;57.78
43824;BME280;29470;53.550;9.926;2023-03-22T18:53:17;100073.81;;;15.82;58.56
43824;BME280;29470;53.550;9.926;2023-03-22T18:58:19;100076.94;;;16.20;57.57
43824;BME280;29470;53.550;9.926;2023-03-22T19:03:21;100068.47;;;16.26;56.95
43824;BME280;29470;53.550;9.926;2023-03-22T19:08:25;100074.91;;;15.41;59.16
43824;BME280;29470;53.550;9.926;2023-03-22T19:13:27;100064.59;;;15.90;58.27
43824;BME280;29470;53.550;9.926;2023-03-22T19:18:29;100073.72;;;16.27;57.84
43824;BME280;29470;53.550;9.926;2023-03-22T19:23:33;100070.81;;;16.70;55.37
43824;BME280;29470;53.550;9.926;2023-03-22T19:28:34;100066.91;;;16.31;57.03
43824;BME280;29470;53.550;9.926;2023-03-22T19:33:36;100069.25;;;16.49;55.81
43824;BME280;29470;53.550;9.926;2023-03-22T19:38:40;100057.53;;;16.38;56.17
43824;BME280;29470;53.550;9.926;2023-03-22T19:43:42;100067.78;;;16.57;55.91
43824;BME280;29470;53.550;9.926;2023-03-22T19:48:43;100056.72;;;16.39;55.05
43824;BME280;29470;53.550;9.926;2023-03-22T19:53:47;100061.06;;;16.14;57.36
43824;BME280;29470;53.550;9.926;2023-03-22T19:58:50;100040.41;;;15.71;58.19
43824;BME280;29470;53.550;9.926;2023-03-22T20:03:52;100039.16;;;15.61;58.63
43824;BME280;29470;53.550;9.926;2023-03-22T20:08:55;100033.59;;;15.99;57.09
43824;BME280;29470;53.550;9.926;2023-03-22T20:13:57;100032.47;;;16.17;56.82
43824;BME280;29470;53.550;9.926;2023-03-22T20:19:02;100048.94;;;16.40;55.69
43824;BME280;29470;53.550;9.926;2023-03-22T20:24:07;100054.06;;;16.13;56.44
43824;BME280;29470;53.550;9.926;2023-03-22T20:29:09;100040.69;;;15.79;58.11
43824;BME280;29470;53.550;9.926;2023-03-22T20:34:10;100039.59;;;15.27;62.00
43824;BME280;29470;53.550;9.926;2023-03-22T20:39:13;100040.38;;;15.94;60.42
43824;BME280;29470;53.550;9.926;2023-03-22T20:44:15;100032.97;;;15.82;61.16
43824;BME280;29470;53.550;9.926;2023-03-22T20:49:17;100018.00;;;15.76;63.40
43824;BME280;29470;53.550;9.926;2023-03-22T20:54:20;100007.25;;;15.92;62.12
43824;BME280;29470;53.550;9.926;2023-03-22T20:59:23;99991.91;;;15.29;63.76
43824;BME280;29470;53.550;9.926;2023-03-22T21:04:24;99976.75;;;15.89;62.57
43824;BME280;29470;53.550;9.926;2023-03-22T21:09:27;99980.28;;;15.91;61.94
43824;BME280;29470;53.550;9.926;2023-03-22T21:14:29;99990.63;;;16.14;59.92
43824;BME280;29470;53.550;9.926;2023-03-22T21:19:31;99970.16;;;16.52;59.69
43824;BME280;29470;53.550;9.926;2023-03-22T21:24:34;99959.06;;;16.32;59.92
43824;BME280;29470;53.550;9.926;2023-03-22T21:29:36;99964.19;;;15.79;60.51
43824;BME280;29470;53.550;9.926;2023-03-22T21:34:38;99959.63;;;15.97;60.60
43824;BME280;29470;53.550;9.926;2023-03-22T21:39:41;99980.31;;;16.17;61.00
43824;BME280;29470;53.550;9.926;2023-03-22T21:44:44;99972.78;;;16.00;62.00
43824;BME280;29470;53.550;9.926;2023-03-22T21:49:46;99974.31;;;16.45;60.42
43824;BME280;29470;53.550;9.926;2023-03-22T21:54:53;99968.81;;;16.12;61.52
43824;BME280;29470;53.550;9.926;2023-03-22T21:59:58;99959.84;;;16.29;60.55
43824;BME280;29470;53.550;9.926;2023-03-22T22:04:59;99945.00;;;16.54;60.60
43824;BME280;29470;53.550;9.926;2023-03-22T22:10:05;99943.53;;;16.35;60.17
43824;BME280;29470;53.550;9.926;2023-03-22T22:15:08;99956.06;;;15.95;62.23
43824;BME280;29470;53.550;9.926;2023-03-22T22:20:11;99944.56;;;16.40;60.23
43824;BME280;29470;53.550;9.926;2023-03-22T22:25:16;99919.63;;;15.97;61.47
43824;BME280;29470;53.550;9.926;2023-03-22T22:30:18;99903.34;;;16.86;58.09
43824;BME280;29470;53.550;9.926;2023-03-22T22:35:20;99917.84;;;16.22;60.55
43824;BME280;29470;53.550;9.926;2023-03-22T22:40:23;99926.97;;;16.34;60.51
43824;BME280;29470;53.550;9.926;2023-03-22T22:45:25;99939.19;;;16.10;61.51
43824;BME280;29470;53.550;9.926;2023-03-22T22:50:26;99925.94;;;16.03;61.79
43824;BME280;29470;53.550;9.926;2023-03-22T22:55:29;99905.28;;;16.10;60.14
43824;BME280;29470;53.550;9.926;2023-03-22T23:00:31;99901.66;;;16.59;58.94
43824;BME280;29470;53.550;9.926;2023-03-22T23:05:33;99902.94;;;15.92;61.46
43824;BME280;29470;53.550;9.926;2023-03-22T23:10:37;99894.50;;;16.26;60.56
43824;BME280;29470;53.550;9.926;2023-03-22T23:15:46;99886.84;;;16.87;60.51
43824;BME280;29470;53.550;9.926;2023-03-22T23:20:49;99871.53;;;16.14;63.30
43824;BME280;29470;53.550;9.926;2023-03-22T23:25:52;99881.69;;;16.07;65.43
43824;BME280;29470;53.550;9.926;2023-03-22T23:30:56;99873.84;;;16.05;64.57
43824;BME280;29470;53.550;9.926;2023-03-22T23:36:07;99876.47;;;16.07;66.17
43824;BME280;29470;53.550;9.926;2023-03-22T23:41:10;99873.09;;;16.09;65.98
43824;BME280;29470;53.550;9.926;2023-03-22T23:46:13;99882.41;;;15.51;69.55
43824;BME280;29470;53.550;9.926;2023-03-22T23:51:17;99874.75;;;15.31;71.23
43824;BME280;29470;53.550;9.926;2023-03-22T23:56:21;99874.41;;;15.70;70.68
